createdAt,value
2017-06-28T00:00:16.601Z,71.25
2017-06-28T00:00:57.146Z,71.15
2017-06-28T00:01:37.653Z,71.44
2017-06-28T00:02:18.165Z,70.67
2017-06-28T00:02:58.657Z,70.67
2017-06-28T00:03:39.156Z,70.67
2017-06-28T00:04:19.636Z,70.96
2017-06-28T00:05:00.190Z,71.06
2017-06-28T00:05:40.664Z,71.15
2017-06-28T00:06:21.230Z,70.92
2017-06-28T00:07:01.722Z,71.06
2017-06-28T00:07:42.359Z,70.18
2017-06-28T00:08:22.714Z,70.96
2017-06-28T00:09:03.261Z,71.06
2017-06-28T00:09:43.769Z,70.37
2017-06-28T00:10:24.281Z,70.67
2017-06-28T00:11:04.820Z,70.67
2017-06-28T00:11:45.385Z,70.96
2017-06-28T00:13:39.245Z,70.96
2017-06-28T00:14:19.857Z,70.96
2017-06-28T00:15:00.411Z,70.86
2017-06-28T00:15:40.900Z,71.25
2017-06-28T00:17:34.126Z,70.28
2017-06-28T00:18:14.637Z,70.76
2017-06-28T00:18:55.185Z,70.37
2017-06-28T00:19:35.684Z,71.15
2017-06-28T00:20:16.182Z,71.25
2017-06-28T00:20:56.712Z,70.18
2017-06-28T00:21:37.232Z,70.47
2017-06-28T00:22:17.733Z,70.37
2017-06-28T00:22:58.227Z,70.09
2017-06-28T00:23:38.755Z,69.89
2017-06-28T00:24:19.254Z,70.37
2017-06-28T00:24:59.776Z,70.37
2017-06-28T00:25:40.263Z,70.18
2017-06-28T00:26:20.733Z,70.18
2017-06-28T00:27:01.250Z,70.09
2017-06-28T00:27:41.816Z,70.09
2017-06-28T00:28:22.331Z,70.28
2017-06-28T00:29:02.856Z,70.28
2017-06-28T00:29:43.359Z,70.18
2017-06-28T00:30:23.916Z,70.18
2017-06-28T00:31:04.421Z,69.89
2017-06-28T00:31:44.905Z,69.99
2017-06-28T00:32:25.369Z,69.89
2017-06-28T00:33:05.888Z,69.31
2017-06-28T00:33:46.399Z,69.5
2017-06-28T00:34:26.948Z,69.5
2017-06-28T00:35:07.410Z,69.7
2017-06-28T00:35:47.895Z,69.7
2017-06-28T00:36:28.357Z,69.02
2017-06-28T00:37:08.868Z,69.12
2017-06-28T00:37:49.410Z,68.82
2017-06-28T00:38:29.982Z,69.02
2017-06-28T00:39:10.505Z,69.89
2017-06-28T00:39:50.986Z,69.12
2017-06-28T00:40:32.187Z,68.92
2017-06-28T00:41:12.732Z,68.92
2017-06-28T00:41:53.249Z,69.21
2017-06-28T00:42:33.699Z,68.92
2017-06-28T00:43:14.175Z,68.63
2017-06-28T00:43:54.729Z,68.73
2017-06-28T00:44:35.249Z,68.34
2017-06-28T00:45:15.785Z,68.44
2017-06-28T00:45:56.314Z,68.73
2017-06-28T00:46:36.795Z,68.54
2017-06-28T00:47:17.277Z,67.95
2017-06-28T00:47:57.815Z,68.05
2017-06-28T00:48:38.341Z,68.73
2017-06-28T00:49:18.786Z,68.73
2017-06-28T00:49:59.274Z,68.54
2017-06-28T00:50:39.879Z,68.82
2017-06-28T00:51:20.344Z,68.34
2017-06-28T00:52:00.816Z,68.34
2017-06-28T00:52:41.392Z,68.05
2017-06-28T00:53:21.847Z,68.24
2017-06-28T00:54:02.435Z,68.37
2017-06-28T00:54:42.910Z,67.89
2017-06-28T00:55:23.425Z,68.37
2017-06-28T00:56:03.969Z,68.34
2017-06-28T00:56:44.489Z,68.82
2017-06-28T00:57:24.944Z,68.63
2017-06-28T00:58:05.506Z,68.73
2017-06-28T00:58:45.996Z,69.7
2017-06-28T00:59:28.253Z,69.79
2017-06-28T01:00:11.664Z,70.05
2017-06-28T01:00:52.306Z,70.05
2017-06-28T01:01:32.860Z,69.76
2017-06-28T01:02:13.353Z,69.67
2017-06-28T01:02:53.843Z,70.05
2017-06-28T01:03:34.469Z,70.15
2017-06-28T01:04:15.055Z,70.7
2017-06-28T01:04:55.552Z,70.98
2017-06-28T01:05:37.672Z,71.56
2017-06-28T01:06:18.134Z,71.66
2017-06-28T01:06:59.598Z,71.82
2017-06-28T01:07:40.076Z,71.76
2017-06-28T01:08:20.636Z,71.47
2017-06-28T01:09:01.122Z,71.34
2017-06-28T01:09:41.688Z,70.66
2017-06-28T01:10:22.246Z,71.4
2017-06-28T01:11:02.765Z,71.69
2017-06-28T01:11:43.265Z,71.78
2017-06-28T01:12:23.808Z,71.4
2017-06-28T01:13:04.361Z,70.78
2017-06-28T01:13:44.883Z,70.01
2017-06-28T01:14:25.358Z,70.88
2017-06-28T01:15:05.836Z,69.92
2017-06-28T01:15:46.365Z,69.62
2017-06-28T01:16:26.871Z,70.01
2017-06-28T01:17:07.380Z,70.01
2017-06-28T01:17:47.947Z,70.98
2017-06-28T01:18:28.476Z,70.01
2017-06-28T01:19:09.012Z,71.08
2017-06-28T01:19:49.489Z,70.65
2017-06-28T01:20:30.045Z,71.81
2017-06-28T01:21:10.533Z,71.72
2017-06-28T01:21:57.646Z,72.36
2017-06-28T01:22:38.124Z,72.74
2017-06-28T01:24:51.403Z,74.29
2017-06-28T01:25:31.992Z,74.87
2017-06-28T01:26:12.804Z,74.54
2017-06-28T01:26:53.110Z,75.6
2017-06-28T01:27:33.638Z,75.41
2017-06-28T01:28:14.107Z,75.84
2017-06-28T01:28:54.664Z,75.64
2017-06-28T01:29:35.171Z,75.64
2017-06-28T01:30:15.710Z,76.22
2017-06-28T01:30:56.180Z,75.93
2017-06-28T01:31:36.687Z,75.64
2017-06-28T01:32:17.192Z,76.22
2017-06-28T01:32:57.711Z,76.8
2017-06-28T01:33:38.193Z,76.51
2017-06-28T01:34:18.763Z,76.51
2017-06-28T01:34:59.264Z,77.19
2017-06-28T01:35:39.970Z,77.67
2017-06-28T01:36:20.481Z,78.92
2017-06-28T01:37:01.020Z,78.73
2017-06-28T01:37:41.541Z,79.27
2017-06-28T01:38:22.108Z,79.95
2017-06-28T01:39:02.604Z,80.24
2017-06-28T01:39:43.119Z,79.37
2017-06-28T01:40:23.597Z,80.47
2017-06-28T01:41:04.134Z,80.53
2017-06-28T01:41:44.637Z,80.57
2017-06-28T01:42:25.113Z,80.43
2017-06-28T01:43:05.659Z,79.99
2017-06-28T01:43:46.190Z,80.14
2017-06-28T01:44:26.686Z,80.43
2017-06-28T01:45:07.232Z,81.01
2017-06-28T01:45:47.756Z,80.14
2017-06-28T01:46:28.288Z,81.4
2017-06-28T01:47:08.770Z,81.78
2017-06-28T01:47:49.314Z,81.49
2017-06-28T01:48:29.836Z,81.88
2017-06-28T01:49:10.405Z,82.07
2017-06-28T01:49:50.905Z,81.88
2017-06-28T01:50:31.418Z,82.26
2017-06-28T01:51:12.030Z,82.56
2017-06-28T01:51:52.593Z,82.46
2017-06-28T01:52:33.056Z,82.46
2017-06-28T01:53:13.613Z,82.36
2017-06-28T01:53:54.080Z,82.26
2017-06-28T01:54:34.614Z,82.07
2017-06-28T01:55:15.106Z,82.07
2017-06-28T01:55:55.601Z,82.65
2017-06-28T01:56:36.101Z,82.36
2017-06-28T01:57:16.615Z,82.75
2017-06-28T01:57:57.127Z,82.17
2017-06-28T01:58:37.651Z,83.04
2017-06-28T01:59:18.176Z,83.09
2017-06-28T01:59:58.655Z,83.19
2017-06-28T02:00:39.180Z,82.81
2017-06-28T02:01:35.700Z,83.58
2017-06-28T02:02:16.192Z,83.39
2017-06-28T02:02:56.755Z,83
2017-06-28T02:03:37.245Z,83.87
2017-06-28T02:04:17.739Z,83.09
2017-06-28T02:06:15.927Z,83.77
2017-06-28T02:06:56.474Z,83.33
2017-06-28T02:07:39.905Z,82.65
2017-06-28T02:08:20.953Z,83.14
2017-06-28T02:09:01.473Z,82.61
2017-06-28T02:09:41.982Z,83
2017-06-28T02:10:23.511Z,83.04
2017-06-28T02:11:03.092Z,83.14
2017-06-28T02:11:43.577Z,82.84
2017-06-28T02:12:24.055Z,83.23
2017-06-28T02:13:04.610Z,82.75
2017-06-28T02:13:45.107Z,83.18
2017-06-28T02:14:25.626Z,83.33
2017-06-28T02:15:06.125Z,83.23
2017-06-28T02:15:46.672Z,83.18
2017-06-28T02:16:27.173Z,83.04
2017-06-28T02:17:09.014Z,82.98
2017-06-28T02:17:49.517Z,82.11
2017-06-28T02:18:29.456Z,81.63
2017-06-28T02:19:09.966Z,81.53
2017-06-28T02:19:50.469Z,81.44
2017-06-28T02:20:30.958Z,81.44
2017-06-28T02:21:11.578Z,81.63
2017-06-28T02:21:52.073Z,81.44
2017-06-28T02:22:32.752Z,81.82
2017-06-28T02:23:13.233Z,82.31
2017-06-28T02:23:54.569Z,81.63
2017-06-28T02:24:34.320Z,82.07
2017-06-28T02:25:16.754Z,82.31
2017-06-28T02:25:58.985Z,82.4
2017-06-28T02:26:39.502Z,82.36
2017-06-28T02:27:34.677Z,82.75
2017-06-28T02:28:15.215Z,83.23
2017-06-28T02:28:55.788Z,82.94
2017-06-28T02:29:36.455Z,81.88
2017-06-28T02:30:16.981Z,82.84
2017-06-28T02:32:05.659Z,82.89
2017-06-28T02:32:50.737Z,83.27
2017-06-28T02:33:32.118Z,82.79
2017-06-28T02:34:21.272Z,82.5
2017-06-28T02:35:01.824Z,82.6
2017-06-28T02:35:42.359Z,82.89
2017-06-28T02:36:22.850Z,82.02
2017-06-28T02:37:03.366Z,82.31
2017-06-28T02:37:43.847Z,82.21
2017-06-28T02:38:26.382Z,82.89
2017-06-28T02:39:06.823Z,82.75
2017-06-28T02:39:50.116Z,82.17
2017-06-28T02:40:30.655Z,82.56
2017-06-28T02:41:11.207Z,83.14
2017-06-28T02:41:51.642Z,82.36
2017-06-28T02:42:32.126Z,82.65
2017-06-28T02:43:12.708Z,82.65
2017-06-28T02:43:53.220Z,82.36
2017-06-28T02:44:33.722Z,82.94
2017-06-28T02:45:14.217Z,83.14
2017-06-28T02:45:54.707Z,83.14
2017-06-28T02:46:35.215Z,82.46
2017-06-28T02:47:15.723Z,82.46
2017-06-28T02:47:56.235Z,82.65
2017-06-28T02:48:36.735Z,81.98
2017-06-28T02:49:17.245Z,82.65
2017-06-28T02:49:57.749Z,82.56
2017-06-28T02:50:38.333Z,82.56
2017-06-28T02:51:18.738Z,82.65
2017-06-28T02:51:59.313Z,82.36
2017-06-28T02:52:39.783Z,82.46
2017-06-28T02:53:20.301Z,83.04
2017-06-28T02:54:00.794Z,82.94
2017-06-28T02:54:41.323Z,83.08
2017-06-28T02:55:21.797Z,82.69
2017-06-28T02:56:02.324Z,82.21
2017-06-28T02:56:42.891Z,81.92
2017-06-28T02:58:41.208Z,82.69
2017-06-28T02:59:21.695Z,82.6
2017-06-28T03:00:02.235Z,82.31
2017-06-28T03:00:42.787Z,82.11
2017-06-28T03:01:23.783Z,81.82
2017-06-28T03:02:04.267Z,81.73
2017-06-28T03:02:44.754Z,82.21
2017-06-28T03:03:25.265Z,82.02
2017-06-28T03:04:05.747Z,82.11
2017-06-28T03:04:46.234Z,82.5
2017-06-28T03:05:26.746Z,82.89
2017-06-28T03:06:07.236Z,83.18
2017-06-28T03:06:47.748Z,82.5
2017-06-28T03:07:28.257Z,82.89
2017-06-28T03:08:08.735Z,82.89
2017-06-28T03:08:49.303Z,82.31
2017-06-28T03:09:29.870Z,81.44
2017-06-28T03:10:10.372Z,81.73
2017-06-28T03:10:51.026Z,81.63
2017-06-28T03:11:31.455Z,82.54
2017-06-28T03:12:11.958Z,82.31
2017-06-28T03:12:52.506Z,82.21
2017-06-28T03:13:33.032Z,82.5
2017-06-28T03:14:13.524Z,82.89
2017-06-28T03:14:54.010Z,82.89
2017-06-28T03:15:34.507Z,83.37
2017-06-28T03:16:14.978Z,83.18
2017-06-28T03:16:55.488Z,83.18
2017-06-28T03:17:35.983Z,82.93
2017-06-28T03:18:16.479Z,83.18
2017-06-28T03:18:57.018Z,83.12
2017-06-28T03:19:37.516Z,83.41
2017-06-28T03:20:17.997Z,82.5
2017-06-28T03:20:58.518Z,82.73
2017-06-28T03:21:39.159Z,82.83
2017-06-28T03:22:19.663Z,82.45
2017-06-28T03:23:00.207Z,82.54
2017-06-28T03:23:40.689Z,82.25
2017-06-28T03:24:21.248Z,81.77
2017-06-28T03:25:01.752Z,82.45
2017-06-28T03:25:42.182Z,82.54
2017-06-28T03:26:22.703Z,82.25
2017-06-28T03:27:03.200Z,82.54
2017-06-28T03:27:43.694Z,82.06
2017-06-28T03:28:24.210Z,81.77
2017-06-28T03:29:04.777Z,81.92
2017-06-28T03:29:45.249Z,81.92
2017-06-28T03:30:25.701Z,81.92
2017-06-28T03:31:06.212Z,81.82
2017-06-28T03:31:46.715Z,81.82
2017-06-28T03:32:27.253Z,82.11
2017-06-28T03:33:07.748Z,82.11
2017-06-28T03:33:48.336Z,82.31
2017-06-28T03:34:28.822Z,82.6
2017-06-28T03:35:09.348Z,82.31
2017-06-28T03:35:49.845Z,81.63
2017-06-28T03:36:30.332Z,82.89
2017-06-28T03:37:10.859Z,82.31
2017-06-28T03:37:51.426Z,82.4
2017-06-28T03:38:31.880Z,82.69
2017-06-28T03:39:12.517Z,83.18
2017-06-28T03:39:53.080Z,82.6
2017-06-28T03:40:33.584Z,82.79
2017-06-28T03:41:14.055Z,82.5
2017-06-28T03:41:54.558Z,82.79
2017-06-28T03:42:35.123Z,82.69
2017-06-28T03:43:15.635Z,82.98
2017-06-28T03:43:56.142Z,82.98
2017-06-28T03:44:36.678Z,82.89
2017-06-28T03:45:17.205Z,83.47
2017-06-28T03:45:57.721Z,82.79
2017-06-28T03:46:38.207Z,82.89
2017-06-28T03:47:18.747Z,83.56
2017-06-28T03:47:59.234Z,83.66
2017-06-28T03:48:39.787Z,83.75
2017-06-28T03:49:20.295Z,84.05
2017-06-28T03:50:00.767Z,83.95
2017-06-28T03:50:41.277Z,84.14
2017-06-28T03:51:21.776Z,83.75
2017-06-28T03:52:02.297Z,84.14
2017-06-28T03:52:42.828Z,84.14
2017-06-28T03:53:23.363Z,83.85
2017-06-28T03:54:03.866Z,84.14
2017-06-28T03:54:44.353Z,84.14
2017-06-28T03:55:24.939Z,83.56
2017-06-28T03:56:05.391Z,82.89
2017-06-28T03:56:45.928Z,82.89
2017-06-28T03:57:26.435Z,82.93
2017-06-28T03:58:06.949Z,83.18
2017-06-28T03:58:47.455Z,82.98
2017-06-28T03:59:27.973Z,83.37
2017-06-28T04:00:08.478Z,83.56
2017-06-28T04:00:48.994Z,83.51
2017-06-28T04:01:29.506Z,82.98
2017-06-28T04:02:10.036Z,83.08
2017-06-28T04:02:50.505Z,83.12
2017-06-28T04:03:31.017Z,83.03
2017-06-28T04:04:11.541Z,83.12
2017-06-28T04:04:52.041Z,83.12
2017-06-28T04:05:32.567Z,83.03
2017-06-28T04:06:13.083Z,82.73
2017-06-28T04:06:53.594Z,82.64
2017-06-28T04:07:34.168Z,82.83
2017-06-28T04:08:14.629Z,83.03
2017-06-28T04:08:55.190Z,82.06
2017-06-28T04:09:35.750Z,81.77
2017-06-28T04:10:16.179Z,81.77
2017-06-28T04:10:57.498Z,82.35
2017-06-28T04:11:38.023Z,82.25
2017-06-28T04:12:18.493Z,82.06
2017-06-28T04:12:59.016Z,81.77
2017-06-28T04:13:39.561Z,82.45
2017-06-28T04:14:20.003Z,82.73
2017-06-28T04:15:00.497Z,82.73
2017-06-28T04:15:41.004Z,83.22
2017-06-28T04:16:21.503Z,82.93
2017-06-28T04:17:02.054Z,83.22
2017-06-28T04:17:42.495Z,83.31
2017-06-28T04:18:22.989Z,83.22
2017-06-28T04:19:03.504Z,83.12
2017-06-28T04:19:44.023Z,83.03
2017-06-28T04:20:24.493Z,83.12
2017-06-28T04:21:04.978Z,83.41
2017-06-28T04:21:45.487Z,82.79
2017-06-28T04:22:26.012Z,83.47
2017-06-28T04:23:06.577Z,83.56
2017-06-28T04:23:47.110Z,84.24
2017-06-28T04:24:27.606Z,84.05
2017-06-28T04:25:08.121Z,83.37
2017-06-28T04:25:48.603Z,83.47
2017-06-28T04:26:29.093Z,83.66
2017-06-28T04:27:09.607Z,83.95
2017-06-28T04:27:50.169Z,84.72
2017-06-28T04:28:30.667Z,84.53
2017-06-28T04:29:11.130Z,83.47
2017-06-28T04:29:51.653Z,83.95
2017-06-28T04:30:32.188Z,83.75
2017-06-28T04:31:12.713Z,84.33
2017-06-28T04:31:53.252Z,84.05
2017-06-28T04:32:33.800Z,83.95
2017-06-28T04:33:14.331Z,84.24
2017-06-28T04:33:54.852Z,84.14
2017-06-28T04:34:35.421Z,83.85
2017-06-28T04:35:16.172Z,84.14
2017-06-28T04:35:56.694Z,83.85
2017-06-28T04:36:37.222Z,83.85
2017-06-28T04:37:17.747Z,83.95
2017-06-28T04:37:58.262Z,83.75
2017-06-28T04:38:38.799Z,83.27
2017-06-28T04:39:19.313Z,84.43
2017-06-28T04:39:59.887Z,83.95
2017-06-28T04:40:40.789Z,84.24
2017-06-28T04:41:21.225Z,84.14
2017-06-28T04:42:01.759Z,84.05
2017-06-28T04:42:42.289Z,84.05
2017-06-28T04:43:22.813Z,83.66
2017-06-28T04:44:03.343Z,83.85
2017-06-28T04:44:43.939Z,84.33
2017-06-28T04:45:25.193Z,84.33
2017-06-28T04:46:05.625Z,84.14
2017-06-28T04:46:46.147Z,84.72
2017-06-28T04:47:26.675Z,84.33
2017-06-28T04:48:08.254Z,84.53
2017-06-28T04:48:48.790Z,83.75
2017-06-28T04:49:29.311Z,84.05
2017-06-28T04:50:09.834Z,84.09
2017-06-28T04:50:50.440Z,84.38
2017-06-28T04:51:30.929Z,84.09
2017-06-28T04:52:11.455Z,83.89
2017-06-28T04:52:51.972Z,83.8
2017-06-28T04:53:32.498Z,84.19
2017-06-28T04:54:13.025Z,83.41
2017-06-28T04:54:53.590Z,83.41
2017-06-28T04:55:34.139Z,83.22
2017-06-28T04:56:14.662Z,84.47
2017-06-28T04:56:55.175Z,84.28
2017-06-28T04:57:35.707Z,84.05
2017-06-28T04:58:16.266Z,84.19
2017-06-28T04:58:56.789Z,83.37
2017-06-28T04:59:37.313Z,83.27
2017-06-28T05:00:17.825Z,83.95
2017-06-28T05:00:58.357Z,84.33
2017-06-28T05:01:38.879Z,84.43
2017-06-28T05:02:19.416Z,84.82
2017-06-28T05:02:59.941Z,84.72
2017-06-28T05:03:40.475Z,84.33
2017-06-28T05:04:20.994Z,84.43
2017-06-28T05:05:01.517Z,84.14
2017-06-28T05:05:42.031Z,83.95
2017-06-28T05:06:22.567Z,84.33
2017-06-28T05:07:03.093Z,84.33
2017-06-28T05:07:43.605Z,84.43
2017-06-28T05:08:24.123Z,83.66
2017-06-28T05:09:04.644Z,83.95
2017-06-28T05:09:45.170Z,84.28
2017-06-28T05:10:25.705Z,83.7
2017-06-28T05:11:06.220Z,83.99
2017-06-28T05:11:46.777Z,83.8
2017-06-28T05:12:28.620Z,83.03
2017-06-28T05:13:09.145Z,83.08
2017-06-28T05:13:49.667Z,84.05
2017-06-28T05:14:30.191Z,83.95
2017-06-28T05:15:10.714Z,84.33
2017-06-28T05:15:51.243Z,84.53
2017-06-28T05:16:31.739Z,84.63
2017-06-28T05:17:12.214Z,84.57
2017-06-28T05:17:52.743Z,83.66
2017-06-28T05:18:33.233Z,84.63
2017-06-28T05:19:13.767Z,84.53
2017-06-28T05:19:54.266Z,84.63
2017-06-28T05:20:35.108Z,84.82
2017-06-28T05:21:15.262Z,83.95
2017-06-28T05:21:55.765Z,84.72
2017-06-28T05:22:36.281Z,84.53
2017-06-28T05:23:16.879Z,85.4
2017-06-28T05:23:57.378Z,84.63
2017-06-28T05:24:37.897Z,84.63
2017-06-28T05:25:18.420Z,84.82
2017-06-28T05:25:58.932Z,84.33
2017-06-28T05:26:39.462Z,85.01
2017-06-28T05:27:19.968Z,87.66
2017-06-28T05:28:00.490Z,88.73
2017-06-28T05:28:41.007Z,90.27
2017-06-28T05:29:21.522Z,90.56
2017-06-28T05:30:02.074Z,90.08
2017-06-28T05:30:42.557Z,90.66
2017-06-28T05:31:23.109Z,89.98
2017-06-28T05:32:03.644Z,89.98
2017-06-28T05:32:44.201Z,90.17
2017-06-28T05:33:24.703Z,89.74
2017-06-28T05:34:05.203Z,91.53
2017-06-28T05:34:45.774Z,91.53
2017-06-28T05:35:26.239Z,90.47
2017-06-28T05:36:06.723Z,88.96
2017-06-28T05:36:47.268Z,89.74
2017-06-28T05:37:27.691Z,90.03
2017-06-28T05:38:08.213Z,88.67
2017-06-28T05:38:48.717Z,88.96
2017-06-28T05:39:29.308Z,88.63
2017-06-28T05:40:09.779Z,89.89
2017-06-28T05:40:50.299Z,90.51
2017-06-28T05:41:30.806Z,92.35
2017-06-28T05:42:11.334Z,92.59
2017-06-28T05:42:51.870Z,91.53
2017-06-28T05:43:32.402Z,89.59
2017-06-28T05:44:12.919Z,89.21
2017-06-28T05:44:53.446Z,89.89
2017-06-28T05:45:33.988Z,89.59
2017-06-28T05:46:14.524Z,88.73
2017-06-28T05:46:55.063Z,88.92
2017-06-28T05:47:35.591Z,88.53
2017-06-28T05:48:16.099Z,88.43
2017-06-28T05:48:56.627Z,89.79
2017-06-28T05:49:37.148Z,89.79
2017-06-28T05:50:17.671Z,91.05
2017-06-28T05:50:58.189Z,89.89
2017-06-28T05:51:38.727Z,89.89
2017-06-28T05:52:19.265Z,89.25
2017-06-28T05:52:59.778Z,89.79
2017-06-28T05:53:40.358Z,88.57
2017-06-28T05:54:20.883Z,89.21
2017-06-28T05:55:01.399Z,91.33
2017-06-28T05:55:41.907Z,90.95
2017-06-28T05:56:22.432Z,91.53
2017-06-28T05:57:02.960Z,91.05
2017-06-28T05:57:43.481Z,90.9
2017-06-28T05:58:24.018Z,89.25
2017-06-28T05:59:04.551Z,89.11
2017-06-28T05:59:45.077Z,87.18
2017-06-28T06:00:25.605Z,85.63
2017-06-28T06:01:06.134Z,87.37
2017-06-28T06:01:46.684Z,86.99
2017-06-28T06:02:27.190Z,87.41
2017-06-28T06:03:07.694Z,86.74
2017-06-28T06:03:48.216Z,86.93
2017-06-28T06:04:28.750Z,87.23
2017-06-28T06:05:09.280Z,87.57
2017-06-28T06:05:49.797Z,89.45
2017-06-28T06:06:30.332Z,88.39
2017-06-28T06:07:10.878Z,90.22
2017-06-28T06:07:51.400Z,90.22
2017-06-28T06:08:31.925Z,90.22
2017-06-28T06:09:12.457Z,90.8
2017-06-28T06:09:52.988Z,90.61
2017-06-28T06:10:33.517Z,90.61
2017-06-28T06:11:14.032Z,90.22
2017-06-28T06:11:54.563Z,90.26
2017-06-28T06:12:35.115Z,90.03
2017-06-28T06:13:15.635Z,88.71
2017-06-28T06:13:56.155Z,90.84
2017-06-28T06:14:36.675Z,93.36
2017-06-28T06:15:17.210Z,92.68
2017-06-28T06:15:57.724Z,91.52
2017-06-28T06:16:38.250Z,91.38
2017-06-28T06:17:18.782Z,92.93
2017-06-28T06:17:59.299Z,92.34
2017-06-28T06:18:39.819Z,91.47
2017-06-28T06:19:20.361Z,92.93
2017-06-28T06:20:00.861Z,94.47
2017-06-28T06:20:41.372Z,92.63
2017-06-28T06:21:21.901Z,95.73
2017-06-28T06:22:02.506Z,92.24
2017-06-28T06:22:43.036Z,90.41
2017-06-28T06:23:23.579Z,90.55
2017-06-28T06:24:04.107Z,89.48
2017-06-28T06:24:44.645Z,91.81
2017-06-28T06:25:25.161Z,91.71
2017-06-28T06:26:05.692Z,90.74
2017-06-28T06:26:46.302Z,94.04
2017-06-28T06:27:26.743Z,91.13
2017-06-28T06:28:07.260Z,90.16
2017-06-28T06:28:48.720Z,90.74
2017-06-28T06:29:29.257Z,90.55
2017-06-28T06:30:09.832Z,88.61
2017-06-28T06:30:50.353Z,89.48
2017-06-28T06:31:30.843Z,93.16
2017-06-28T06:32:11.359Z,95.58
2017-06-28T06:32:51.886Z,96.36
2017-06-28T06:33:32.370Z,95.39
2017-06-28T06:34:12.894Z,93.35
2017-06-28T06:34:53.420Z,89.97
2017-06-28T06:35:33.923Z,82.28
2017-06-28T06:36:14.498Z,91.32
2017-06-28T06:36:55.036Z,94.52
2017-06-28T06:37:35.574Z,95.97
2017-06-28T06:39:33.847Z,90.74
2017-06-28T06:40:14.359Z,90.06
2017-06-28T06:40:54.899Z,92.39
2017-06-28T06:41:35.418Z,91.81
2017-06-28T06:42:15.950Z,92.87
2017-06-28T06:42:56.484Z,92.58
2017-06-28T06:43:37.003Z,92.77
2017-06-28T06:44:17.520Z,89.14
2017-06-28T06:44:58.041Z,85.9
2017-06-28T06:45:38.590Z,83.38
2017-06-28T06:46:19.082Z,90.16
2017-06-28T06:46:59.605Z,93.35
2017-06-28T06:47:40.131Z,86.09
2017-06-28T06:48:20.676Z,92.19
2017-06-28T06:49:01.174Z,94.47
2017-06-28T06:49:41.698Z,92.14
2017-06-28T06:50:22.214Z,88.46
2017-06-28T06:51:02.739Z,84.58
2017-06-28T06:51:43.261Z,88.61
2017-06-28T06:52:23.801Z,87.2
2017-06-28T06:53:04.343Z,83
2017-06-28T06:53:44.973Z,84.64
2017-06-28T06:54:25.516Z,83.96
2017-06-28T06:55:06.047Z,81.05
2017-06-28T06:55:46.561Z,83.63
2017-06-28T06:56:27.086Z,81.7
2017-06-28T06:57:07.602Z,81.89
2017-06-28T06:57:48.130Z,84.06
2017-06-28T06:58:28.633Z,84.11
2017-06-28T06:59:09.441Z,84.41
2017-06-28T06:59:50.062Z,83.44
2017-06-28T07:00:30.593Z,87.41
2017-06-28T07:01:11.119Z,87.12
2017-06-28T07:01:51.644Z,86.24
2017-06-28T07:02:32.171Z,87.35
2017-06-28T07:03:12.710Z,85.61
2017-06-28T07:03:53.249Z,88.81
2017-06-28T07:04:33.758Z,90.36
2017-06-28T07:06:26.438Z,90.16
2017-06-28T07:07:06.958Z,85.31
2017-06-28T07:07:47.465Z,85.13
2017-06-28T07:08:27.982Z,88.46
2017-06-28T07:09:08.739Z,90.11
2017-06-28T07:11:22.073Z,89.18
2017-06-28T07:12:02.605Z,90.93
2017-06-28T07:12:43.111Z,90.78
2017-06-28T07:13:23.725Z,84
2017-06-28T07:14:04.276Z,84.68
2017-06-28T07:14:44.802Z,85.17
2017-06-28T07:15:25.260Z,91.22
2017-06-28T07:16:06.114Z,86.47
2017-06-28T07:16:46.524Z,84.24
2017-06-28T07:17:27.126Z,89.28
2017-06-28T07:18:07.792Z,88.79
2017-06-28T07:18:48.740Z,87.96
2017-06-28T07:19:29.186Z,91.36
2017-06-28T07:20:09.702Z,92.23
2017-06-28T07:20:50.212Z,90.14
2017-06-28T07:21:30.725Z,91.89
2017-06-28T07:22:11.224Z,89.61
2017-06-28T07:22:51.729Z,87.96
2017-06-28T07:23:32.248Z,85.24
2017-06-28T07:24:12.769Z,85.04
2017-06-28T07:24:53.285Z,89.75
2017-06-28T07:25:33.815Z,78.92
2017-06-28T07:26:14.332Z,84.6
2017-06-28T07:26:54.846Z,86.15
2017-06-28T07:27:35.354Z,86.74
2017-06-28T07:28:15.880Z,86.44
2017-06-28T07:28:56.446Z,86.15
2017-06-28T07:29:36.972Z,82.46
2017-06-28T07:30:17.474Z,83.53
2017-06-28T07:30:58.010Z,85.22
2017-06-28T07:31:38.688Z,83.63
2017-06-28T07:32:19.174Z,84.41
2017-06-28T07:32:59.688Z,82.95
2017-06-28T07:33:40.184Z,80.23
2017-06-28T07:34:20.654Z,78.05
2017-06-28T07:35:01.154Z,80.38
2017-06-28T07:35:41.646Z,79.41
2017-06-28T07:36:22.165Z,76.85
2017-06-28T07:37:02.652Z,77.34
2017-06-28T07:37:43.208Z,82.44
2017-06-28T07:38:23.725Z,82.77
2017-06-28T07:39:04.233Z,79.04
2017-06-28T07:39:44.745Z,79.53
2017-06-28T07:40:25.281Z,84.47
2017-06-28T07:41:05.784Z,80.6
2017-06-28T07:41:46.287Z,78.91
2017-06-28T07:42:26.804Z,79.58
2017-06-28T07:43:07.313Z,86.66
2017-06-28T07:43:47.856Z,87.38
2017-06-28T07:44:28.364Z,86.41
2017-06-28T07:45:08.892Z,85.35
2017-06-28T07:45:49.437Z,81.47
2017-06-28T07:46:29.948Z,79.3
2017-06-28T07:47:10.473Z,80.65
2017-06-28T07:47:50.993Z,85.3
2017-06-28T07:48:31.512Z,88.02
2017-06-28T07:49:12.019Z,88.93
2017-06-28T07:49:52.583Z,83.17
2017-06-28T07:50:33.093Z,84.77
2017-06-28T07:51:13.623Z,85.06
2017-06-28T07:51:54.160Z,87.09
2017-06-28T07:52:34.645Z,84.67
2017-06-28T07:53:15.225Z,77.26
2017-06-28T07:53:55.714Z,83.95
2017-06-28T07:54:36.236Z,78.03
2017-06-28T07:55:16.954Z,77.84
2017-06-28T07:55:57.473Z,80.3
2017-06-28T07:56:38.264Z,81.66
2017-06-28T07:57:18.825Z,82.63
2017-06-28T07:57:59.329Z,83.02
2017-06-28T07:58:40.436Z,76.95
2017-06-28T07:59:21.046Z,77.43
2017-06-28T08:00:01.562Z,78.69
2017-06-28T08:00:42.114Z,77.72
2017-06-28T08:01:22.814Z,78.11
2017-06-28T08:02:03.248Z,76.81
2017-06-28T08:02:43.879Z,78.07
2017-06-28T08:03:24.330Z,75.36
2017-06-28T08:04:04.845Z,77.78
2017-06-28T08:04:45.313Z,80.34
2017-06-28T08:05:25.846Z,81.76
2017-06-28T08:06:06.479Z,82.82
2017-06-28T08:06:46.901Z,84.38
2017-06-28T08:07:27.429Z,85.83
2017-06-28T08:08:07.944Z,86.02
2017-06-28T08:08:48.476Z,87.29
2017-06-28T08:09:29.000Z,89.9
2017-06-28T08:10:09.508Z,83.31
2017-06-28T08:10:50.033Z,87.77
2017-06-28T08:11:30.555Z,82.53
2017-06-28T08:12:11.074Z,85.93
2017-06-28T08:12:51.614Z,88.16
2017-06-28T08:13:32.077Z,86.9
2017-06-28T08:14:12.604Z,83.12
2017-06-28T08:14:53.150Z,85.54
2017-06-28T08:15:33.674Z,87.13
2017-06-28T08:16:14.231Z,81.18
2017-06-28T08:16:54.834Z,79.33
2017-06-28T08:17:35.385Z,84.09
2017-06-28T08:18:15.903Z,82.05
2017-06-28T08:18:56.396Z,83.4
2017-06-28T08:19:36.940Z,81.37
2017-06-28T08:20:17.538Z,83.7
2017-06-28T08:20:58.023Z,81.95
2017-06-28T08:21:38.543Z,76.78
2017-06-28T08:22:19.073Z,78.58
2017-06-28T08:22:59.596Z,84.34
2017-06-28T08:23:40.206Z,81.72
2017-06-28T08:24:20.846Z,79.06
2017-06-28T08:25:01.459Z,82.4
2017-06-28T08:25:42.017Z,78
2017-06-28T08:26:22.538Z,82.78
2017-06-28T08:27:03.054Z,84.14
2017-06-28T08:27:43.573Z,83.95
2017-06-28T08:28:24.116Z,81.13
2017-06-28T08:29:04.619Z,80.13
2017-06-28T08:29:45.149Z,84.1
2017-06-28T08:30:25.648Z,83.72
2017-06-28T08:31:06.152Z,86.33
2017-06-28T08:31:46.689Z,81.77
2017-06-28T08:32:27.165Z,81.77
2017-06-28T08:33:07.665Z,79.99
2017-06-28T08:33:48.173Z,82.8
2017-06-28T08:34:28.819Z,85.85
2017-06-28T08:35:09.256Z,86.43
2017-06-28T08:35:49.774Z,82.75
2017-06-28T08:36:30.271Z,80.19
2017-06-28T08:37:10.826Z,83.86
2017-06-28T08:37:51.366Z,85.85
2017-06-28T08:38:31.878Z,83.52
2017-06-28T08:39:12.367Z,84.58
2017-06-28T08:39:52.874Z,84.24
2017-06-28T08:40:33.392Z,85.02
2017-06-28T08:41:13.927Z,83.75
2017-06-28T08:41:54.464Z,81.68
2017-06-28T08:42:34.901Z,84.24
2017-06-28T08:43:15.460Z,84.43
2017-06-28T08:43:56.246Z,84.05
2017-06-28T08:44:36.843Z,81.85
2017-06-28T08:45:17.361Z,82.24
2017-06-28T08:45:57.923Z,83.22
2017-06-28T08:46:38.423Z,82.53
2017-06-28T08:47:18.964Z,82.15
2017-06-28T08:47:59.438Z,78.66
2017-06-28T08:48:40.057Z,77.49
2017-06-28T08:49:20.446Z,76.19
2017-06-28T08:50:00.984Z,80.88
2017-06-28T08:50:41.512Z,78.46
2017-06-28T08:51:22.249Z,76.81
2017-06-28T08:52:02.816Z,75.94
2017-06-28T08:52:43.399Z,79.24
2017-06-28T08:53:23.919Z,79.63
2017-06-28T08:54:04.429Z,77.88
2017-06-28T08:54:44.933Z,76.62
2017-06-28T08:55:25.433Z,76.95
2017-06-28T08:56:05.982Z,79.57